createdAt,value
2022-11-27T00:00:50.772Z,110.75
2022-11-27T00:03:13.219Z,105.83
2022-11-27T00:05:35.658Z,111.05
2022-11-27T00:07:58.041Z,107.53
2022-11-27T00:10:20.457Z,112.85
2022-11-27T00:12:42.738Z,110.20
2022-11-27T00:15:05.347Z,92.27
2022-11-27T00:17:27.694Z,111.07
2022-11-27T00:19:50.028Z,99.30
2022-11-27T00:22:12.377Z,100.30
2022-11-27T00:24:34.671Z,106.23
2022-11-27T00:26:56.963Z,102.07
2022-11-27T00:29:19.285Z,104.17
2022-11-27T00:31:41.826Z,110.90
2022-11-27T00:34:06.626Z,110.78
2022-11-27T00:36:30.066Z,109.60
2022-11-27T00:38:52.372Z,115.70
2022-11-27T00:41:23.214Z,114.17
2022-11-27T00:43:45.778Z,122.68
2022-11-27T00:46:08.220Z,117.95
2022-11-27T00:48:30.691Z,127.53
2022-11-27T00:50:53.010Z,119.63
2022-11-27T00:53:15.307Z,124.90
2022-11-27T00:55:37.559Z,126.15
2022-11-27T00:57:59.834Z,119.70
2022-11-27T01:00:23.183Z,121.22
2022-11-27T01:02:45.607Z,142.00
2022-11-27T01:05:08.433Z,120.82
2022-11-27T01:07:30.791Z,123.80
2022-11-27T01:09:53.120Z,121.28
2022-11-27T01:12:15.460Z,119.47
2022-11-27T01:14:37.876Z,121.97
2022-11-27T01:17:00.552Z,132.90
2022-11-27T01:19:22.868Z,129.35
2022-11-27T01:21:45.223Z,124.33
2022-11-27T01:24:08.337Z,120.40
2022-11-27T01:26:30.776Z,120.38
2022-11-27T01:28:54.330Z,110.28
2022-11-27T01:31:22.476Z,117.85
2022-11-27T01:33:45.292Z,118.03
2022-11-27T01:36:08.428Z,114.60
2022-11-27T01:38:30.937Z,115.85
2022-11-27T01:41:07.395Z,115.95
2022-11-27T01:44:00.533Z,109.03
2022-11-27T01:46:40.139Z,107.17
2022-11-27T01:49:11.437Z,116.28
2022-11-27T01:51:33.752Z,101.15
2022-11-27T01:53:56.116Z,112.90
2022-11-27T01:56:18.453Z,110.00
2022-11-27T01:58:40.773Z,114.67
2022-11-27T02:01:03.073Z,111.20
2022-11-27T02:03:25.860Z,113.37
2022-11-27T02:05:48.287Z,109.40
2022-11-27T02:08:13.205Z,109.60
2022-11-27T02:10:50.267Z,106.07
2022-11-27T02:13:29.391Z,103.68
2022-11-27T02:15:56.770Z,119.28
2022-11-27T02:18:36.607Z,109.60
2022-11-27T02:21:14.102Z,112.22
2022-11-27T02:24:09.078Z,114.07
2022-11-27T02:26:56.259Z,112.10
2022-11-27T02:29:22.526Z,108.88
2022-11-27T02:32:27.262Z,110.32
2022-11-27T02:35:01.834Z,102.28
2022-11-27T02:37:40.060Z,109.57
2022-11-27T02:40:03.599Z,106.68
2022-11-27T02:42:25.885Z,103.45
2022-11-27T02:44:58.392Z,103.55
2022-11-27T02:47:20.721Z,96.70
2022-11-27T02:49:43.339Z,99.10
2022-11-27T02:52:05.622Z,107.05
2022-11-27T02:54:29.288Z,103.73
2022-11-27T02:56:51.963Z,97.75
2022-11-27T02:59:14.585Z,88.15
2022-11-27T03:01:46.217Z,81.70
2022-11-27T03:04:13.113Z,81.97
2022-11-27T03:06:42.553Z,88.40
2022-11-27T03:09:15.256Z,84.97
2022-11-27T03:11:37.648Z,82.80
2022-11-27T03:14:03.788Z,77.07
2022-11-27T03:16:44.402Z,81.60
2022-11-27T03:19:36.706Z,79.03
2022-11-27T03:22:00.822Z,75.75
2022-11-27T03:24:23.243Z,76.82
2022-11-27T03:26:45.632Z,77.97
2022-11-27T03:29:20.651Z,80.07
2022-11-27T03:31:43.867Z,82.15
2022-11-27T03:36:28.553Z,80.93
2022-11-27T03:38:51.481Z,75.73
2022-11-27T03:41:42.651Z,78.03
2022-11-27T03:44:51.611Z,83.07
2022-11-27T03:47:44.838Z,75.97
2022-11-27T03:50:21.936Z,86.93
2022-11-27T03:53:08.103Z,81.65
2022-11-27T03:56:09.665Z,90.93
2022-11-27T03:58:39.068Z,91.72
2022-11-27T04:01:01.442Z,108.22
2022-11-27T04:03:25.856Z,102.47
2022-11-27T04:05:48.173Z,107.97
2022-11-27T04:08:10.477Z,109.07
2022-11-27T04:10:32.783Z,115.17
2022-11-27T04:12:55.082Z,113.50
2022-11-27T04:15:17.422Z,95.30
2022-11-27T04:17:39.895Z,105.27
2022-11-27T04:20:02.357Z,108.38
2022-11-27T04:22:24.767Z,100.03
2022-11-27T04:24:47.069Z,104.63
2022-11-27T04:27:09.385Z,99.90
2022-11-27T04:29:31.676Z,101.97
2022-11-27T04:31:54.003Z,79.10
2022-11-27T04:34:16.336Z,91.93
2022-11-27T04:36:39.636Z,95.18
2022-11-27T04:39:02.128Z,83.85
2022-11-27T04:41:24.590Z,95.47
2022-11-27T04:43:46.894Z,89.32
2022-11-27T04:46:09.237Z,93.17
2022-11-27T04:48:31.607Z,95.83
2022-11-27T04:50:55.766Z,97.67
2022-11-27T04:53:18.063Z,100.15
2022-11-27T04:55:40.393Z,98.87
2022-11-27T04:58:02.662Z,100.70
2022-11-27T05:00:25.089Z,114.63
2022-11-27T05:02:47.594Z,116.93
2022-11-27T05:05:10.056Z,115.28
2022-11-27T05:07:32.511Z,106.07
2022-11-27T05:09:54.817Z,114.45
2022-11-27T05:12:17.414Z,111.47
2022-11-27T05:14:39.894Z,102.70
2022-11-27T05:17:02.467Z,106.82
2022-11-27T05:19:27.469Z,102.07
2022-11-27T05:21:50.260Z,90.10
2022-11-27T05:24:12.863Z,96.05
2022-11-27T05:26:35.188Z,117.85
2022-11-27T05:28:57.591Z,108.07
2022-11-27T05:31:20.175Z,106.72
2022-11-27T05:33:42.510Z,102.63
2022-11-27T05:36:05.117Z,107.00
2022-11-27T05:38:27.404Z,105.20
2022-11-27T05:40:49.690Z,112.80
2022-11-27T05:43:11.960Z,128.43
2022-11-27T05:45:34.237Z,104.27
2022-11-27T05:47:56.549Z,181.47
2022-11-27T05:50:18.897Z,116.00
2022-11-27T05:52:41.261Z,109.53
2022-11-27T05:55:03.876Z,115.97
2022-11-27T05:57:26.407Z,140.90
2022-11-27T05:59:48.690Z,132.07
2022-11-27T06:02:15.056Z,132.83
2022-11-27T06:04:41.031Z,94.43
2022-11-27T06:07:03.511Z,100.78
2022-11-27T06:09:25.833Z,102.03
2022-11-27T06:11:48.150Z,141.30
2022-11-27T06:14:10.827Z,105.07
2022-11-27T06:16:33.150Z,123.57
2022-11-27T06:18:55.903Z,85.00
2022-11-27T06:21:18.610Z,92.82
2022-11-27T06:23:42.236Z,97.35
2022-11-27T06:26:32.022Z,102.43
2022-11-27T06:28:55.440Z,121.47
2022-11-27T06:31:20.439Z,80.53
2022-11-27T06:33:42.926Z,146.40
2022-11-27T06:36:06.166Z,107.82
2022-11-27T06:40:50.683Z,129.15
2022-11-27T06:43:12.985Z,91.00
2022-11-27T06:45:35.317Z,83.97
2022-11-27T06:47:58.696Z,76.82
2022-11-27T06:50:21.067Z,82.50
2022-11-27T06:52:43.432Z,53.27
2022-11-27T06:55:06.054Z,85.60
2022-11-27T06:57:28.350Z,75.70
2022-11-27T06:59:50.656Z,67.70
2022-11-27T07:02:15.236Z,68.37
2022-11-27T07:04:37.638Z,62.47
2022-11-27T07:07:00.084Z,58.65
2022-11-27T07:09:22.366Z,67.75
2022-11-27T07:11:44.659Z,73.83
2022-11-27T07:14:07.020Z,62.83
2022-11-27T07:16:32.227Z,58.80
2022-11-27T07:18:57.596Z,63.40
2022-11-27T07:21:20.177Z,56.13
2022-11-27T07:23:42.555Z,54.67
2022-11-27T07:26:12.856Z,65.78
2022-11-27T07:28:35.236Z,58.30
2022-11-27T07:30:58.464Z,56.72
2022-11-27T07:35:43.032Z,54.78
2022-11-27T07:38:05.302Z,49.37
2022-11-27T07:40:27.609Z,63.10
2022-11-27T07:42:49.879Z,51.10
2022-11-27T07:45:12.214Z,57.50
2022-11-27T07:47:34.523Z,55.63
2022-11-27T07:49:58.595Z,55.10
2022-11-27T07:52:21.000Z,56.17
2022-11-27T07:54:43.319Z,61.88
2022-11-27T07:57:05.673Z,60.83
2022-11-27T07:59:28.002Z,55.97
2022-11-27T08:01:50.306Z,56.70
2022-11-27T08:04:12.632Z,61.27
2022-11-27T08:06:35.005Z,62.33
2022-11-27T08:08:57.354Z,59.33
2022-11-27T08:11:32.410Z,58.43
2022-11-27T08:14:02.802Z,54.90
2022-11-27T08:16:25.284Z,64.05
2022-11-27T08:18:47.712Z,62.58
2022-11-27T08:21:10.030Z,63.10
2022-11-27T08:23:32.308Z,67.70
2022-11-27T08:25:54.717Z,69.50
2022-11-27T08:28:17.024Z,64.68
2022-11-27T08:30:39.372Z,69.00
2022-11-27T08:33:01.711Z,68.75
2022-11-27T08:35:24.036Z,68.50
2022-11-27T08:37:46.560Z,75.60
2022-11-27T08:40:09.761Z,72.85
2022-11-27T08:44:54.267Z,65.25
2022-11-27T08:47:17.015Z,69.27
2022-11-27T08:49:43.645Z,66.63
2022-11-27T08:52:08.329Z,68.25
2022-11-27T08:54:30.605Z,64.37
2022-11-27T08:56:52.946Z,59.72
2022-11-27T08:59:15.235Z,60.27
2022-11-27T09:01:37.585Z,60.13
2022-11-27T09:04:00.041Z,52.40
2022-11-27T09:06:25.126Z,54.33
2022-11-27T09:08:47.471Z,53.25
2022-11-27T09:11:10.194Z,52.13
2022-11-27T09:13:32.866Z,54.22
2022-11-27T09:15:57.559Z,49.35
2022-11-27T09:18:19.884Z,48.78
2022-11-27T09:20:42.193Z,52.47
2022-11-27T09:23:04.547Z,54.13
2022-11-27T09:25:26.875Z,52.73
2022-11-27T09:27:49.156Z,48.63
2022-11-27T09:30:12.263Z,53.75
2022-11-27T09:32:34.839Z,47.40
2022-11-27T09:34:58.000Z,46.72
2022-11-27T09:39:42.609Z,43.90
2022-11-27T09:42:06.353Z,43.95
2022-11-27T09:44:45.367Z,44.13
2022-11-27T09:47:29.419Z,41.50
2022-11-27T09:49:59.264Z,46.70
2022-11-27T09:52:59.204Z,42.35
2022-11-27T09:55:26.917Z,46.25
2022-11-27T09:58:43.226Z,40.67
2022-11-27T10:01:11.792Z,40.55
2022-11-27T10:03:34.165Z,44.22
2022-11-27T10:06:35.031Z,46.15
2022-11-27T10:09:25.659Z,44.55
2022-11-27T10:12:27.310Z,45.53
2022-11-27T10:14:59.817Z,49.45
2022-11-27T10:17:29.703Z,41.88
2022-11-27T10:20:20.977Z,42.17
2022-11-27T10:23:12.671Z,42.67
2022-11-27T10:25:52.447Z,43.60
2022-11-27T10:28:54.571Z,40.67
2022-11-27T10:31:33.431Z,46.70
2022-11-27T10:33:59.361Z,44.13
2022-11-27T10:36:48.447Z,46.42
2022-11-27T10:39:37.039Z,46.20
2022-11-27T10:42:04.403Z,43.67
2022-11-27T10:44:40.546Z,49.42
2022-11-27T10:47:05.537Z,50.35
2022-11-27T10:49:27.884Z,50.92
2022-11-27T10:51:50.185Z,52.08
2022-11-27T10:54:26.560Z,52.33
2022-11-27T10:57:02.980Z,54.72
2022-11-27T10:59:34.591Z,50.88
2022-11-27T11:01:59.131Z,49.78
2022-11-27T11:04:41.743Z,54.45
2022-11-27T11:07:04.060Z,52.83
2022-11-27T11:09:31.942Z,55.30
2022-11-27T11:11:54.338Z,56.92
2022-11-27T11:14:20.704Z,62.13
2022-11-27T11:16:43.727Z,54.92
2022-11-27T11:19:08.576Z,58.47
2022-11-27T11:21:41.121Z,60.67
2022-11-27T11:25:54.127Z,62.35
2022-11-27T11:27:56.361Z,57.63
2022-11-27T11:30:04.081Z,54.38
2022-11-27T11:32:21.083Z,48.50
2022-11-27T11:35:01.393Z,55.28
2022-11-27T11:37:33.571Z,49.72
2022-11-27T11:39:44.610Z,55.05
2022-11-27T11:41:46.619Z,55.65
2022-11-27T11:44:01.120Z,61.28
2022-11-27T11:46:19.457Z,58.10
2022-11-27T11:48:33.503Z,54.72
2022-11-27T11:50:45.527Z,60.72
2022-11-27T11:53:26.377Z,48.20
2022-11-27T11:55:48.934Z,51.00
2022-11-27T11:58:35.308Z,55.28
2022-11-27T12:03:35.679Z,50.90
2022-11-27T12:06:09.411Z,50.15
2022-11-27T12:08:32.023Z,47.28
2022-11-27T12:10:51.003Z,46.35
2022-11-27T12:13:16.350Z,48.63
2022-11-27T12:15:31.027Z,53.17
2022-11-27T12:17:51.541Z,52.00
2022-11-27T12:20:17.305Z,51.22
2022-11-27T12:22:38.256Z,60.22
2022-11-27T12:25:19.494Z,55.45
2022-11-27T12:27:48.123Z,56.67
2022-11-27T12:30:11.624Z,55.97
2022-11-27T12:32:45.657Z,51.92
2022-11-27T12:35:07.108Z,59.20
2022-11-27T12:37:50.472Z,54.78
2022-11-27T12:40:38.562Z,65.72
2022-11-27T12:43:00.444Z,59.50
2022-11-27T12:45:17.909Z,59.63
2022-11-27T12:47:48.124Z,65.82
2022-11-27T12:50:02.521Z,63.03
2022-11-27T12:52:21.646Z,68.60
2022-11-27T12:54:47.651Z,65.28
2022-11-27T12:56:58.772Z,63.90
2022-11-27T12:59:33.805Z,66.07
2022-11-27T13:01:41.469Z,65.72
2022-11-27T13:04:18.964Z,64.82
2022-11-27T13:06:23.580Z,60.22
2022-11-27T13:08:54.323Z,54.67
2022-11-27T13:11:04.060Z,54.85
2022-11-27T13:13:20.746Z,59.45
2022-11-27T13:15:47.881Z,61.15
2022-11-27T13:17:57.141Z,61.03
2022-11-27T13:19:59.885Z,62.40
2022-11-27T13:22:10.030Z,61.78
2022-11-27T13:24:13.312Z,65.03
2022-11-27T13:26:30.522Z,63.55
2022-11-27T13:28:41.600Z,60.45
2022-11-27T13:31:02.316Z,58.28
2022-11-27T13:33:40.263Z,55.20
2022-11-27T13:36:03.805Z,58.33
2022-11-27T13:38:26.138Z,61.40
2022-11-27T13:40:52.165Z,61.00
2022-11-27T13:43:28.952Z,61.65
2022-11-27T13:45:51.810Z,62.47
2022-11-27T13:48:56.345Z,61.08
2022-11-27T13:51:30.852Z,60.35
2022-11-27T13:53:53.179Z,63.10
2022-11-27T13:56:15.491Z,57.57
2022-11-27T13:58:40.224Z,55.95
2022-11-27T14:01:18.290Z,61.55
2022-11-27T14:03:40.790Z,64.10
2022-11-27T14:06:03.161Z,58.83
2022-11-27T14:08:33.638Z,60.33
2022-11-27T14:11:08.685Z,56.03
2022-11-27T14:13:43.777Z,61.97
2022-11-27T14:16:30.137Z,60.30
2022-11-27T14:18:54.245Z,66.68
2022-11-27T14:21:38.320Z,59.78
2022-11-27T14:24:05.914Z,71.03
2022-11-27T14:26:28.274Z,62.50
2022-11-27T14:28:53.119Z,61.37
2022-11-27T14:31:29.983Z,66.78
2022-11-27T14:34:15.610Z,62.30
2022-11-27T14:36:35.519Z,62.03
2022-11-27T14:41:24.091Z,63.20
2022-11-27T14:43:46.449Z,62.00
2022-11-27T14:46:18.808Z,58.43
2022-11-27T14:48:45.226Z,65.45
2022-11-27T14:51:12.980Z,69.68
2022-11-27T14:53:35.272Z,62.05
2022-11-27T14:55:58.335Z,58.93
2022-11-27T14:58:24.122Z,56.78
2022-11-27T15:01:00.852Z,69.65
2022-11-27T15:03:24.520Z,62.50
2022-11-27T15:06:16.397Z,68.68
2022-11-27T15:08:38.715Z,68.63
2022-11-27T15:11:01.658Z,67.73
2022-11-27T15:13:29.385Z,79.57
2022-11-27T15:16:18.634Z,71.07
2022-11-27T15:18:41.010Z,74.57
2022-11-27T15:21:03.628Z,75.63
2022-11-27T15:23:34.085Z,70.50
2022-11-27T15:26:14.093Z,66.00
2022-11-27T15:28:53.011Z,69.50
2022-11-27T15:31:38.069Z,65.50
2022-11-27T15:34:13.636Z,59.63
2022-11-27T15:36:45.309Z,64.03
2022-11-27T15:39:22.314Z,59.15
2022-11-27T15:41:55.537Z,58.63
2022-11-27T15:44:17.832Z,59.50
2022-11-27T15:46:41.724Z,62.10
2022-11-27T15:49:04.011Z,64.10
2022-11-27T15:51:26.304Z,52.57
2022-11-27T15:53:51.602Z,53.10
2022-11-27T15:56:13.892Z,55.70
2022-11-27T15:58:36.198Z,58.10
2022-11-27T16:00:58.528Z,62.27
2022-11-27T16:03:22.458Z,55.38
2022-11-27T16:05:44.803Z,56.03
2022-11-27T16:08:10.771Z,51.43
2022-11-27T16:10:33.170Z,47.65
2022-11-27T16:12:57.629Z,61.03
2022-11-27T16:15:22.968Z,58.50
2022-11-27T16:17:45.608Z,54.67
2022-11-27T16:20:08.799Z,53.43
2022-11-27T16:24:53.409Z,51.35
2022-11-27T16:27:15.755Z,49.70
2022-11-27T16:29:38.067Z,48.23
2022-11-27T16:32:01.351Z,50.23
2022-11-27T16:34:23.753Z,47.65
2022-11-27T16:36:46.629Z,54.37
2022-11-27T16:39:08.953Z,48.65
2022-11-27T16:41:31.244Z,48.60
2022-11-27T16:43:55.986Z,50.90
2022-11-27T16:46:26.787Z,43.20
2022-11-27T16:48:50.211Z,49.80
2022-11-27T16:51:21.768Z,42.00
2022-11-27T16:53:47.228Z,51.97
2022-11-27T16:56:10.515Z,49.53
2022-11-27T17:03:19.176Z,52.72
2022-11-27T17:05:41.511Z,49.13
2022-11-27T17:08:04.392Z,50.90
2022-11-27T17:10:26.763Z,55.75
2022-11-27T17:12:49.088Z,59.50
2022-11-27T17:15:11.685Z,60.40
2022-11-27T17:17:39.927Z,51.25
2022-11-27T17:20:02.680Z,58.60
2022-11-27T17:22:26.784Z,60.03
2022-11-27T17:24:49.134Z,55.20
2022-11-27T17:27:11.417Z,54.30
2022-11-27T17:29:34.072Z,55.22
2022-11-27T17:31:56.505Z,54.65
2022-11-27T17:34:18.985Z,63.17
2022-11-27T17:36:21.077Z,59.58
2022-11-27T17:38:23.056Z,64.60
2022-11-27T17:40:25.133Z,70.15
2022-11-27T17:42:27.674Z,65.32
2022-11-27T17:44:29.741Z,63.30
2022-11-27T17:46:32.578Z,71.97
2022-11-27T17:48:35.200Z,72.80
2022-11-27T17:50:37.771Z,60.65
2022-11-27T17:52:40.154Z,76.35
2022-11-27T17:54:42.908Z,69.35
2022-11-27T17:56:51.196Z,68.60
2022-11-27T17:58:54.172Z,74.50
2022-11-27T18:00:57.381Z,69.97
2022-11-27T18:05:09.166Z,74.75
2022-11-27T18:07:12.611Z,78.70
2022-11-27T18:09:15.397Z,91.35
2022-11-27T18:11:23.076Z,88.85
2022-11-27T18:13:32.436Z,88.85
2022-11-27T18:15:35.417Z,94.28
2022-11-27T18:17:38.330Z,92.13
2022-11-27T18:19:41.852Z,98.60
2022-11-27T18:21:45.023Z,98.45
2022-11-27T18:24:22.141Z,99.10
2022-11-27T18:26:16.225Z,92.90
2022-11-27T18:28:19.503Z,90.85
2022-11-27T18:30:22.158Z,90.30
2022-11-27T18:32:24.736Z,83.65
2022-11-27T18:38:35.700Z,77.07
2022-11-27T18:40:41.553Z,73.22
2022-11-27T18:42:44.125Z,66.72
2022-11-27T18:44:46.987Z,74.15
2022-11-27T18:46:50.729Z,69.00
2022-11-27T18:48:53.252Z,72.97
2022-11-27T18:51:23.560Z,71.05
2022-11-27T18:53:26.016Z,75.85
2022-11-27T18:55:28.158Z,82.90
2022-11-27T18:57:30.706Z,81.38
2022-11-27T18:59:34.375Z,64.75
2022-11-27T19:01:41.891Z,70.47
2022-11-27T19:03:44.805Z,67.00
2022-11-27T19:05:47.842Z,69.85
2022-11-27T19:07:52.438Z,67.30
2022-11-27T19:09:56.063Z,67.65
2022-11-27T19:11:59.185Z,64.65
2022-11-27T19:14:01.543Z,71.13
2022-11-27T19:16:16.409Z,60.65
2022-11-27T19:18:19.465Z,69.85
2022-11-27T19:20:21.560Z,74.45
2022-11-27T19:22:23.690Z,78.78
2022-11-27T19:26:34.314Z,68.35
2022-11-27T19:28:37.521Z,63.83
2022-11-27T19:30:42.079Z,77.55
2022-11-27T19:32:45.211Z,78.03
2022-11-27T19:34:50.656Z,82.32
2022-11-27T19:36:53.694Z,72.32
2022-11-27T19:38:58.354Z,87.70
2022-11-27T19:41:00.783Z,80.47
2022-11-27T19:43:03.060Z,78.82
2022-11-27T19:45:06.112Z,81.05
2022-11-27T19:47:09.745Z,77.80
2022-11-27T19:49:17.663Z,88.70
2022-11-27T19:51:20.732Z,82.28
2022-11-27T19:53:23.060Z,83.43
2022-11-27T19:55:25.779Z,84.90
2022-11-27T19:59:31.007Z,85.82
2022-11-27T20:01:34.137Z,88.15
2022-11-27T20:05:39.057Z,88.72
2022-11-27T20:07:41.203Z,90.70
2022-11-27T20:09:43.291Z,94.38
2022-11-27T20:13:49.265Z,85.38
2022-11-27T20:15:52.977Z,87.55
2022-11-27T20:17:55.499Z,85.53
2022-11-27T20:19:58.339Z,83.10
2022-11-27T20:22:01.341Z,86.82
2022-11-27T20:24:04.703Z,83.97
2022-11-27T20:26:09.488Z,93.30
2022-11-27T20:28:11.998Z,88.40
2022-11-27T20:30:14.836Z,93.55
2022-11-27T20:32:17.789Z,94.82
2022-11-27T20:34:21.622Z,93.15
2022-11-27T20:36:25.318Z,95.00
2022-11-27T20:38:27.403Z,98.03
2022-11-27T20:40:29.480Z,107.15
2022-11-27T20:42:31.540Z,99.45
2022-11-27T20:44:33.665Z,113.53
2022-11-27T20:46:35.654Z,115.55
2022-11-27T20:48:37.772Z,104.25
2022-11-27T20:50:40.020Z,122.10
2022-11-27T20:52:42.126Z,113.32
2022-11-27T20:54:44.675Z,120.93
2022-11-27T20:56:47.702Z,111.78
2022-11-27T20:58:49.774Z,108.18
2022-11-27T21:01:21.628Z,117.05
2022-11-27T21:03:42.281Z,119.05
2022-11-27T21:06:04.636Z,122.77
2022-11-27T21:08:28.137Z,115.57
2022-11-27T21:10:50.722Z,104.30
2022-11-27T21:13:13.036Z,107.90
2022-11-27T21:15:35.356Z,113.37
2022-11-27T21:17:57.703Z,101.53
2022-11-27T21:20:20.734Z,100.93
2022-11-27T21:22:44.131Z,100.47
2022-11-27T21:25:06.539Z,101.93
2022-11-27T21:27:29.288Z,107.65
2022-11-27T21:29:51.609Z,101.28
2022-11-27T21:32:14.371Z,97.70
2022-11-27T21:34:36.748Z,92.13
2022-11-27T21:36:59.089Z,97.47
2022-11-27T21:39:21.760Z,95.13
2022-11-27T21:41:44.048Z,96.25
2022-11-27T21:44:06.413Z,98.17
2022-11-27T21:46:28.837Z,98.30
2022-11-27T21:48:52.623Z,91.25
2022-11-27T21:51:20.906Z,95.50
2022-11-27T21:53:43.797Z,103.47
2022-11-27T21:56:07.210Z,98.38
2022-11-27T21:58:34.134Z,100.63
2022-11-27T22:00:56.547Z,108.13
2022-11-27T22:03:18.902Z,109.47
2022-11-27T22:05:41.198Z,104.30
2022-11-27T22:08:03.693Z,100.77
2022-11-27T22:10:26.049Z,110.30
2022-11-27T22:12:48.396Z,95.03
2022-11-27T22:15:11.138Z,100.23
2022-11-27T22:17:33.488Z,100.18
2022-11-27T22:19:55.802Z,97.43
2022-11-27T22:22:18.106Z,98.93
2022-11-27T22:24:40.653Z,101.43
2022-11-27T22:27:03.134Z,91.22
2022-11-27T22:29:25.506Z,101.97
2022-11-27T22:31:47.871Z,110.17
2022-11-27T22:34:10.161Z,106.47
2022-11-27T22:36:33.898Z,105.65
2022-11-27T22:38:56.735Z,99.80
2022-11-27T22:41:20.190Z,109.47
2022-11-27T22:43:42.770Z,108.75
2022-11-27T22:46:10.786Z,101.65
2022-11-27T22:48:33.215Z,111.13
2022-11-27T22:50:57.372Z,113.38
2022-11-27T22:53:19.680Z,127.30
2022-11-27T22:55:41.990Z,123.97
2022-11-27T22:58:04.288Z,123.20
2022-11-27T23:00:26.604Z,127.78
2022-11-27T23:02:48.969Z,128.87
2022-11-27T23:05:11.388Z,133.40
2022-11-27T23:07:33.786Z,123.27
2022-11-27T23:09:56.113Z,142.60
2022-11-27T23:12:18.430Z,143.73
2022-11-27T23:14:41.053Z,133.80
2022-11-27T23:17:03.612Z,136.52
2022-11-27T23:19:25.976Z,137.77
2022-11-27T23:21:48.289Z,150.70
2022-11-27T23:24:13.825Z,129.07
2022-11-27T23:26:36.153Z,147.32
2022-11-27T23:28:58.454Z,136.85
2022-11-27T23:31:31.748Z,185.23
2022-11-27T23:36:17.040Z,172.88
2022-11-27T23:38:42.248Z,151.73
2022-11-27T23:41:34.636Z,173.18
2022-11-27T23:43:57.059Z,153.07
2022-11-27T23:46:20.980Z,164.68
2022-11-27T23:48:43.471Z,159.55
2022-11-27T23:51:14.511Z,150.35
2022-11-27T23:53:36.930Z,154.40
2022-11-27T23:56:08.898Z,202.73
2022-11-27T23:58:31.203Z,192.13
